AirNav   TITAN Aviation Fuels
 
 1300 users online  

02MO Troy Airpark
Troy, Missouri, USA

GOING TO TROY?


FAA INFORMATION EFFECTIVE 01 DECEMBER 2022

Location

FAA Identifier: 02MO
Lat/Long: 39-02-46.5400N 091-01-41.5900W
39-02.775667N 091-01.693167W
39.0462611,-91.0282194
(estimated)
Elevation: 630 ft. / 192 m (estimated)
Variation: 02E (1985)
From city: 5 miles NW of TROY, MO
Time zone: UTC -6 (UTC -5 during Daylight Saving Time)
Zip code: 63379

Airport Operations

Airport use: Private use. Permission required prior to landing
Activation date: 03/1976
Control tower: no
ARTCC: KANSAS CITY CENTER
FSS: SAINT LOUIS FLIGHT SERVICE STATION
Attendance: IREG
Wind indicator: yes
Segmented circle: no

Nearby radio navigation aids

VOR radial/distance  VOR name  Freq  Var
FTZr348/21.3FORISTELL VORTAC110.8005E
STLr293/27.8ST LOUIS VORTAC117.4001E

Airport Services

Runway Information

Runway 8/26

Dimensions: 2100 x 25 ft. / 640 x 8 m
Surface: asphalt, in good condition
RUNWAY 8  RUNWAY 26
Latitude: 39-02.759167N39-02.792333N
Longitude: 091-01.914000W091-01.472333W
Elevation: 618.0 ft.630.0 ft.
Traffic pattern: leftleft
Obstructions: 25 ft. trees, 200 ft. from runwaynone

Airport Ownership and Management from official FAA records

Ownership: Privately-owned
Owner: FRANK D. BALDWIN
226 AERO DRIVE
TROY, MO 63379
Phone 636-528-4886
Manager: FRANK D. BALDWIN
226 AERO DRIVE
TROY, MO 63379
Phone 636-528-4886

Airport Operational Statistics

Aircraft based on the field: 32
Single engine airplanes: 30
Gliders airplanes: 1
Ultralights: 1
    

Additional Remarks

FOR CD CTC ST LOUIS APCH AT 314-890-1018.
FOR PHOTOS & FURTHER INFO SEE WWW.TROYAIRPARKCOMMUNITY.COM

Instrument Procedures

There are no published instrument procedures at 02MO.

Some nearby airports with instrument procedures:

H19 - Bowling Green Municipal Airport (21 nm NW)
KFYG - Washington Regional Airport (28 nm S)
KSET - St Charles County Smartt Airport (29 nm E)
KSUS - Spirit of St Louis Airport (29 nm SE)
1H0 - Creve Coeur Airport (31 nm SE)
 
Loc | Ops | Rwys | IFR | FBO | Links
Com | Nav | Svcs | Stats | Notes
Area around 02MO (Troy Airpark)
 
Road maps at: MapQuest Bing Google
 
Aerial photo
WARNING: Photo may not be current or correct
Aerial photo of 02MO (Troy Airpark)
Photo by Robb Gessert

Do you have a better or more recent aerial photo of Troy Airpark that you would like to share? If so, please send us your photo.

 
Sectional chart

 
Airport distance calculator
Flying to Troy Airpark? Find the distance to fly.

From to 02MO

Sunrise and sunset
Times for 02-Dec-2022
 Local
(UTC-6)
 Zulu
(UTC)
Morning civil twilight06:3712:37
Sunrise07:0613:06
Sunset16:4122:41
Evening civil twilight17:1123:11

Current date and time
Zulu (UTC)  02-Dec-2022 15:28:23
Local (UTC-6)  02-Dec-2022 09:28:23
 
METAR
KFYG 
28nm S 
021435Z AUTO 17014KT 10SM 11/M02 A2997 RMK AO2
KSET 
29nm E 
021454Z AUTO 18010KT 10SM BKN060 11/M02 A2998 RMK AO2 SLP150 6//// T01111022 $
KSUS 
30nm SE 
021454Z 19013G21KT 10SM SCT033 OVC060 11/M04 A2997 RMK AO2 PK WND 19027/1437 SLP151 T01061039 56023
KSTL 
36nm SE 
021451Z 18013G22KT 10SM SCT060 BKN250 10/M04 A2999 RMK AO2 SLP159 T01001039 56023
KPPQ 
37nm N 
021515Z AUTO 17005G17KT 10SM OVC030 10/M03 A2991 RMK AO2 T00961030
KMYJ 
37nm W 
021515Z AUTO 19017G22KT 10SM BKN025 10/01 A2986 RMK AO2
KHAE 
45nm NW 
021515Z AUTO 18013G18KT 10SM BKN027 10/M02 A2986 RMK AO2
KALN 
47nm E 
021450Z 17015G23KT 10SM BKN060 09/M03 A3001
KUUV 
49nm S 
021515Z AUTO 19010G21KT 145V215 10SM OVC025 10/M03 A3000 RMK AO2
TAF
KSUS 
30nm SE 
021129Z 0212/0312 17005KT P6SM BKN045 FM021700 19019G35KT P6SM BKN035 FM030000 19015G25KT P6SM BKN030 FM030500 26016G31KT P6SM VCSH BKN020 FM030800 31015G27KT P6SM SCT050
KSTL 
36nm SE 
021129Z 0212/0318 17008KT P6SM BKN045 FM021700 19019G35KT P6SM BKN035 FM030000 19015G25KT P6SM BKN030 FM030500 26016G31KT P6SM VCSH BKN020 FM030800 31015G27KT P6SM SCT050 FM031200 32010G20KT P6SM FEW050
NOTAMs
Click for the latest NOTAMs
NOTAMs are issued by the DoD/FAA and will open in a separate window not controlled by AirNav.

 

 
 

Would you like to see your business listed on this page?

 If your business provides an interesting product or service to pilots, flight crews, aircraft, or users of the Troy Airpark, you should consider listing it here.  To start the listing process, click on the button below
 
Add a business
 

Other Pages about Troy Airpark

Update a link
 
Copyright © AirNav, LLC. All rights reserved. Privacy Policy  Contact